Time;durP1;ratioP1;P1;durP2;ratioP2;P2;SDS_P1;SDS_P2;PMS_P1;PMS_P2;Temp;Humidity;BMP_temperature;BMP_pressure;BME280_temperature;BME280_humidity;BME280_pressure;Samples;Min_cycle;Max_cycle;Signal;HPM_P1;HPM_P2
2021/08/18 00:01:54;;;;;;;0.70;0.70;;;;;;;15.70;100.00;-4226.59;5051157;28;20434;-69
2021/08/18 00:04:21;;;;;;;0.70;0.63;;;;;;;15.80;100.00;-4185.97;5053381;28;20942;-69
2021/08/18 00:06:51;;;;;;;0.70;0.70;;;;;;;15.92;100.00;-3787.31;5045732;28;20468;-69
2021/08/18 00:09:17;;;;;;;0.70;0.70;;;;;;;15.75;100.00;-3850.91;5033120;28;20443;-69
2021/08/18 00:11:45;;;;;;;0.90;0.90;;;;;;;15.75;100.00;-3533.56;5033948;28;20455;-69
2021/08/18 00:14:12;;;;;;;0.70;0.60;;;;;;;15.74;100.00;-3723.97;5033098;28;20453;-70
2021/08/18 00:16:39;;;;;;;0.70;0.70;;;;;;;15.78;100.00;-3505.59;5032637;28;20470;-71
2021/08/18 00:19:08;;;;;;;0.70;0.60;;;;;;;15.84;100.00;-3269.38;5052634;28;20424;-70
2021/08/18 00:21:35;;;;;;;0.70;0.70;;;;;;;15.76;100.00;-3363.47;5052921;28;20407;-70
2021/08/18 00:24:02;;;;;;;0.80;0.80;;;;;;;15.79;100.00;-3302.47;5052666;28;20470;-71
2021/08/18 00:26:30;;;;;;;0.80;0.80;;;;;;;15.82;100.00;-3373.53;5052304;28;20436;-68
2021/08/18 00:28:58;;;;;;;0.70;0.60;;;;;;;15.82;100.00;-3091.66;5051549;28;20891;-68
2021/08/18 00:31:27;;;;;;;0.70;0.63;;;;;;;15.75;100.00;-3134.97;5034226;28;20464;-68
2021/08/18 00:33:54;;;;;;;0.70;0.70;;;;;;;15.76;100.00;-3376.16;5044818;28;20950;-71
2021/08/18 00:36:22;;;;;;;0.70;0.70;;;;;;;15.74;100.00;-3594.50;5045756;28;20466;-70
2021/08/18 00:38:50;;;;;;;0.70;0.60;;;;;;;15.79;100.00;-3449.75;5034126;28;20994;-68
2021/08/18 00:41:17;;;;;;;0.70;0.60;;;;;;;15.79;100.00;-3683.31;5050304;28;20455;-70
2021/08/18 00:43:44;;;;;;;0.70;0.70;;;;;;;15.91;100.00;-3386.09;5051669;28;20455;-68
2021/08/18 00:46:11;;;;;;;0.70;0.70;;;;;;;15.77;100.00;-3485.31;5050077;28;20443;-70
2021/08/18 00:48:40;;;;;;;0.70;0.70;;;;;;;15.83;100.00;-3381.13;5049062;28;20435;-70
2021/08/18 00:51:07;;;;;;;0.70;0.70;;;;;;;15.80;100.00;-3401.47;5032675;28;20454;-67
2021/08/18 00:53:35;;;;;;;0.80;0.80;;;;;;;15.92;100.00;-3317.53;5053554;28;20549;-70
2021/08/18 00:56:04;;;;;;;0.80;0.80;;;;;;;15.91;100.00;-3368.31;5039794;28;20450;-69
2021/08/18 00:58:31;;;;;;;0.70;0.70;;;;;;;15.96;100.00;-3289.53;5056607;28;20450;-69
2021/08/18 01:01:01;;;;;;;0.70;0.60;;;;;;;15.99;100.00;-3170.09;5053362;28;20434;-68
2021/08/18 01:03:29;;;;;;;1.47;1.37;;;;;;;16.02;100.00;-2872.84;5043293;28;20440;-68
2021/08/18 01:05:57;;;;;;;0.73;0.70;;;;;;;16.09;100.00;-2260.34;5018808;28;20499;-69
2021/08/18 01:08:25;;;;;;;0.80;0.80;;;;;;;16.00;100.00;-2288.56;5034572;28;20448;-69
2021/08/18 01:10:56;;;;;;;0.70;0.63;;;;;;;15.97;100.00;-2164.16;5040632;28;20840;-69
2021/08/18 01:13:24;;;;;;;0.70;0.63;;;;;;;16.03;100.00;-1912.41;5043943;28;20446;-69
2021/08/18 01:15:51;;;;;;;0.70;0.70;;;;;;;15.99;100.00;-2103.13;5053145;28;20508;-69
2021/08/18 01:18:18;;;;;;;0.70;0.70;;;;;;;16.01;100.00;-2072.56;5054983;28;20943;-69
2021/08/18 01:20:45;;;;;;;0.70;0.70;;;;;;;16.13;100.00;-1851.03;5053813;28;20435;-69
2021/08/18 01:23:14;;;;;;;0.70;0.63;;;;;;;16.08;100.00;-1848.69;5048941;28;20878;-70
2021/08/18 01:25:42;;;;;;;0.70;0.60;;;;;;;16.06;100.00;-1480.22;5048362;28;20771;-69
2021/08/18 01:28:13;;;;;;;0.70;0.70;;;;;;;16.21;100.00;-1222.81;5043872;28;20463;-69
2021/08/18 01:30:42;;;;;;;0.70;0.70;;;;;;;16.11;100.00;-1124.16;5039148;28;20451;-70
2021/08/18 01:33:11;;;;;;;0.70;0.70;;;;;;;16.11;100.00;-1009.75;5054567;28;20416;-69
2021/08/18 01:35:44;;;;;;;0.80;0.70;;;;;;;16.14;100.00;-923.16;5037475;28;20471;-69
2021/08/18 01:38:31;;;;;;;0.70;0.67;;;;;;;16.14;100.00;-963.84;5053706;28;20459;-69
2021/08/18 01:40:58;;;;;;;0.70;0.70;;;;;;;16.16;100.00;-495.88;5037820;28;20428;-69
2021/08/18 01:43:46;;;;;;;0.70;0.70;;;;;;;16.21;100.00;-437.13;5035547;28;20418;-69
2021/08/18 01:46:19;;;;;;;0.87;0.87;;;;;;;16.13;100.00;-287.56;5040217;28;20445;-69
2021/08/18 01:48:46;;;;;;;0.70;0.70;;;;;;;16.06;100.00;-422.78;5055029;28;20940;-69
2021/08/18 01:51:13;;;;;;;0.80;0.80;;;;;;;16.17;100.00;-378.84;5053978;28;20483;-70
2021/08/18 01:53:43;;;;;;;2.17;1.27;;;;;;;16.20;100.00;-182.84;5051980;28;20463;-70
2021/08/18 01:56:14;;;;;;;0.70;0.60;;;;;;;16.09;100.00;4.63;5053755;28;20447;-70
2021/08/18 01:58:41;;;;;;;0.70;0.70;;;;;;;16.18;100.00;99.34;5047524;28;20459;-70
2021/08/18 02:01:11;;;;;;;0.80;0.80;;;;;;;16.21;100.00;432.72;5038753;28;20508;-71
2021/08/18 02:03:41;;;;;;;0.70;0.60;;;;;;;16.09;100.00;241.09;5054038;28;20451;-70
2021/08/18 02:06:09;;;;;;;0.63;0.60;;;;;;;16.17;100.00;455.34;5053634;28;20909;-71
2021/08/18 02:08:36;;;;;;;1.17;1.00;;;;;;;16.01;100.00;-201.91;5046774;28;20460;-70
2021/08/18 02:11:04;;;;;;;0.60;0.60;;;;;;;16.03;100.00;-481.44;5033665;28;20457;-70
2021/08/18 02:13:31;;;;;;;0.70;0.63;;;;;;;16.01;100.00;-906.06;5059798;28;20498;-70
2021/08/18 02:15:58;;;;;;;0.70;0.70;;;;;;;15.99;100.00;-1617.81;5049414;28;20876;-70
2021/08/18 02:18:25;;;;;;;0.70;0.70;;;;;;;15.98;100.00;-2402.94;5055164;28;20442;-70
2021/08/18 02:20:54;;;;;;;0.70;0.70;;;;;;;16.01;100.00;-3302.16;5054678;28;20410;-70
2021/08/18 02:23:21;;;;;;;0.80;0.77;;;;;;;15.94;100.00;-4196.13;5054151;28;20509;-71
2021/08/18 02:25:48;;;;;;;1.03;0.90;;;;;;;16.02;100.00;-4518.59;5049967;28;20452;-71
2021/08/18 02:28:16;;;;;;;0.70;0.70;;;;;;;16.00;100.00;-4957.78;5052122;28;20954;-70
2021/08/18 02:30:43;;;;;;;0.80;0.70;;;;;;;16.02;100.00;-5295.47;5043224;28;20473;-71
2021/08/18 02:33:10;;;;;;;0.70;0.70;;;;;;;15.97;100.00;-5818.22;5035558;28;20983;-70
2021/08/18 02:35:37;;;;;;;1.27;1.10;;;;;;;15.95;100.00;-6267.31;5045766;28;20441;-71
2021/08/18 02:38:06;;;;;;;0.70;0.60;;;;;;;15.94;100.00;-6713.88;5054094;28;21037;-71
2021/08/18 02:40:34;;;;;;;1.00;0.80;;;;;;;15.97;100.00;-6947.38;5036011;28;20790;-71
2021/08/18 02:43:01;;;;;;;0.77;0.77;;;;;;;15.95;100.00;-7279.63;5038302;28;20448;-70
2021/08/18 02:45:29;;;;;;;0.70;0.60;;;;;;;15.94;100.00;-7677.78;5032982;28;20476;-71
2021/08/18 02:47:56;;;;;;;0.70;0.60;;;;;;;15.96;100.00;-7809.75;5035081;28;20471;-71
2021/08/18 02:50:26;;;;;;;0.70;0.70;;;;;;;15.94;100.00;-7966.91;5054099;28;21037;-71
2021/08/18 02:52:53;;;;;;;0.70;0.60;;;;;;;16.00;100.00;-8010.41;5037483;28;20999;-70
2021/08/18 02:55:22;;;;;;;0.60;0.60;;;;;;;16.02;100.00;-7815.19;5047784;28;20527;-69
2021/08/18 02:57:55;;;;;;;0.70;0.60;;;;;;;16.05;100.00;-7820.44;5052038;28;20837;-71
2021/08/18 03:00:23;;;;;;;1.87;1.77;;;;;;;16.01;100.00;-7850.63;5045525;28;20449;-72
2021/08/18 03:02:51;;;;;;;0.70;0.60;;;;;;;16.09;100.00;-7790.22;5048565;28;20501;-71
2021/08/18 03:05:19;;;;;;;3.47;0.93;;;;;;;16.06;100.00;-7779.91;5051968;28;20494;-72
2021/08/18 03:07:46;;;;;;;0.70;0.60;;;;;;;16.09;100.00;-7376.72;5038743;28;20581;-68
2021/08/18 03:10:13;;;;;;;0.73;0.73;;;;;;;16.03;100.00;-7221.66;5034162;28;20439;-69
2021/08/18 03:12:41;;;;;;;0.70;0.60;;;;;;;15.99;100.00;-7305.16;5034744;28;20956;-69
2021/08/18 03:15:09;;;;;;;0.70;0.70;;;;;;;15.94;100.00;-7720.91;5033329;28;20930;-69
2021/08/18 03:17:36;;;;;;;0.70;0.60;;;;;;;15.93;100.00;-8149.47;5029344;28;20440;-70
2021/08/18 03:20:27;;;;;;;0.70;0.70;;;;;;;15.94;100.00;-8778.41;5040647;28;20444;-71
2021/08/18 03:22:54;;;;;;;0.63;0.60;;;;;;;15.97;100.00;-9032.13;5034580;28;20480;-72
2021/08/18 03:25:24;;;;;;;0.70;0.70;;;;;;;15.93;100.00;-9452.69;5047492;28;20451;-71
2021/08/18 03:27:52;;;;;;;0.70;0.70;;;;;;;15.93;100.00;-9579.44;5045128;28;21027;-71
2021/08/18 03:30:19;;;;;;;0.70;0.60;;;;;;;15.89;100.00;-9743.81;5033565;28;20423;-71
2021/08/18 03:32:46;;;;;;;0.70;0.60;;;;;;;15.82;100.00;-10070.09;5048300;28;20896;-71
2021/08/18 03:35:14;;;;;;;0.70;0.60;;;;;;;15.83;100.00;-10095.47;5052553;28;20543;-70
2021/08/18 03:37:41;;;;;;;0.70;0.70;;;;;;;15.83;100.00;-10364.06;5039488;28;20487;-71
2021/08/18 03:40:09;;;;;;;0.70;0.70;;;;;;;15.82;100.00;-10607.25;5033974;28;20487;-70
2021/08/18 03:42:36;;;;;;;1.17;0.83;;;;;;;15.84;100.00;-10635.34;5034796;28;20431;-71
2021/08/18 03:45:05;;;;;;;0.70;0.70;;;;;;;15.82;100.00;-10896.00;5051818;28;20989;-71
2021/08/18 03:47:32;;;;;;;0.80;0.80;;;;;;;15.84;100.00;-10820.28;5053758;28;20516;-71
2021/08/18 03:49:59;;;;;;;3.83;1.87;;;;;;;15.83;100.00;-10974.72;5053263;28;20422;-71
2021/08/18 03:52:29;;;;;;;0.70;0.60;;;;;;;15.80;100.00;-11159.31;5055873;28;20456;-71
2021/08/18 03:54:57;;;;;;;0.67;0.60;;;;;;;15.84;100.00;-11134.41;5050634;28;20442;-71
2021/08/18 03:57:24;;;;;;;0.70;0.70;;;;;;;15.94;100.00;-10998.72;5051833;28;20459;-69
2021/08/18 03:59:51;;;;;;;0.60;0.60;;;;;;;15.90;100.00;-10962.75;5051639;28;20438;-71
2021/08/18 04:02:19;;;;;;;0.70;0.60;;;;;;;15.93;100.00;-10897.25;5049704;28;20547;-73
2021/08/18 04:04:46;;;;;;;0.70;0.70;;;;;;;15.87;100.00;-10785.13;5032842;28;20427;-72
2021/08/18 04:07:13;;;;;;;0.70;0.60;;;;;;;15.84;100.00;-10653.06;5047643;28;20523;-71
2021/08/18 04:09:40;;;;;;;0.70;0.70;;;;;;;15.80;100.00;-10591.84;5052852;28;20543;-71
2021/08/18 04:12:07;;;;;;;0.70;0.60;;;;;;;15.76;100.00;-10773.81;5046056;28;20468;-71
2021/08/18 04:14:35;;;;;;;0.70;0.60;;;;;;;15.74;100.00;-11135.81;5033190;28;20432;-71
2021/08/18 04:17:05;;;;;;;0.70;0.60;;;;;;;15.74;100.00;-11503.00;5031513;28;20789;-71
2021/08/18 04:19:36;;;;;;;0.70;0.70;;;;;;;15.79;100.00;-11888.63;5033080;28;20440;-69
2021/08/18 04:22:03;;;;;;;0.70;0.70;;;;;;;15.76;100.00;-12255.41;5033343;28;20441;-70
2021/08/18 04:24:32;;;;;;;0.70;0.60;;;;;;;15.77;100.00;-12369.47;5052374;28;21017;-69
2021/08/18 04:26:58;;;;;;;0.70;0.60;;;;;;;15.78;100.00;-12579.75;5037952;28;20918;-69
2021/08/18 04:29:25;;;;;;;0.70;0.70;;;;;;;15.78;100.00;-12658.25;5035488;28;20431;-69
2021/08/18 04:31:53;;;;;;;0.70;0.60;;;;;;;15.80;100.00;-12731.94;5044043;28;20473;-71
2021/08/18 04:34:20;;;;;;;1.87;1.10;;;;;;;15.82;100.00;-12876.53;5053531;28;20428;-71
2021/08/18 04:36:48;;;;;;;0.70;0.63;;;;;;;15.85;100.00;-12917.47;5054544;28;20850;-69
2021/08/18 04:39:15;;;;;;;0.70;0.70;;;;;;;15.83;100.00;-13043.78;5054266;28;20550;-69
2021/08/18 04:41:43;;;;;;;0.70;0.70;;;;;;;15.88;100.00;-13064.75;5054584;28;20827;-70
2021/08/18 04:44:10;;;;;;;1.03;0.97;;;;;;;15.94;100.00;-13161.75;5054861;28;20412;-70
2021/08/18 04:46:37;;;;;;;0.70;0.60;;;;;;;15.90;100.00;-13242.28;5054817;28;20515;-73
2021/08/18 04:49:08;;;;;;;0.70;0.70;;;;;;;15.88;100.00;-13452.03;5053416;28;20866;-71
2021/08/18 04:51:35;;;;;;;0.70;0.70;;;;;;;15.88;100.00;-13586.28;5054808;28;20501;-71
2021/08/18 04:54:03;;;;;;;0.70;0.70;;;;;;;15.89;100.00;-13596.56;5055009;28;20963;-71
2021/08/18 04:56:30;;;;;;;0.70;0.60;;;;;;;15.87;100.00;-13669.66;5056812;28;20444;-71
2021/08/18 04:58:57;;;;;;;0.70;0.70;;;;;;;15.98;100.00;-13668.66;5055136;28;20436;-71
2021/08/18 05:01:24;;;;;;;0.80;0.80;;;;;;;16.03;100.00;-13550.44;5053176;28;20447;-71
2021/08/18 05:03:51;;;;;;;0.70;0.70;;;;;;;16.11;100.00;-13199.63;5055914;28;20423;-69
2021/08/18 05:06:18;;;;;;;0.80;0.80;;;;;;;16.12;100.00;-13014.88;5054777;28;20441;-71
2021/08/18 05:08:45;;;;;;;0.70;0.70;;;;;;;16.13;100.00;-12819.97;5054783;28;20454;-69
2021/08/18 05:11:14;;;;;;;0.70;0.63;;;;;;;16.21;100.00;-12547.47;5055676;28;20463;-69
2021/08/18 05:13:41;;;;;;;0.70;0.63;;;;;;;16.25;100.00;-12393.38;5054897;28;20999;-71
2021/08/18 05:16:08;;;;;;;0.70;0.70;;;;;;;16.29;100.00;-12188.72;5047261;28;20456;-70
2021/08/18 05:18:35;;;;;;;0.70;0.60;;;;;;;16.28;100.00;-12016.25;5035708;28;20429;-70
2021/08/18 05:21:02;;;;;;;2.00;1.00;;;;;;;16.28;100.00;-11919.94;5036035;28;20991;-70
2021/08/18 05:23:30;;;;;;;0.70;0.70;;;;;;;16.33;100.00;-11618.88;5034521;28;20447;-70
2021/08/18 05:26:19;;;;;;;0.93;0.80;;;;;;;16.34;100.00;-11667.22;5034011;28;20429;-70
2021/08/18 05:28:46;;;;;;;0.70;0.70;;;;;;;16.50;100.00;-11111.19;5035329;28;20439;-70
2021/08/18 05:31:13;;;;;;;0.70;0.63;;;;;;;16.46;100.00;-10902.81;5035075;28;20464;-70
2021/08/18 05:33:40;;;;;;;0.70;0.60;;;;;;;16.50;100.00;-10578.59;5035455;28;20795;-70
2021/08/18 05:36:10;;;;;;;0.70;0.70;;;;;;;16.50;100.00;-10350.31;5035675;28;20776;-70
2021/08/18 05:38:37;;;;;;;1.13;1.03;;;;;;;16.54;100.00;-9927.13;5035246;28;20555;-70
2021/08/18 05:41:05;;;;;;;0.70;0.60;;;;;;;16.51;100.00;-9711.19;5035112;28;20810;-71
2021/08/18 05:43:33;;;;;;;0.70;0.67;;;;;;;16.51;100.00;-9571.66;5036569;28;20438;-71
2021/08/18 05:46:00;;;;;;;0.70;0.63;;;;;;;16.65;100.00;-9169.31;5055037;28;20428;-71
2021/08/18 05:48:27;;;;;;;0.70;0.60;;;;;;;16.71;100.00;-8921.03;5055104;28;20426;-70
2021/08/18 05:50:54;;;;;;;1.00;1.00;;;;;;;16.77;100.00;-8451.78;5056815;28;20874;-70
2021/08/18 05:53:21;;;;;;;0.70;0.60;;;;;;;16.77;100.00;-8241.03;5074746;28;20498;-70
2021/08/18 05:55:49;;;;;;;0.70;0.60;;;;;;;16.84;100.00;-7705.59;5066778;28;20435;-70
2021/08/18 05:58:16;;;;;;;0.70;0.60;;;;;;;16.82;100.00;-7233.03;5054836;28;20432;-70
2021/08/18 06:00:44;;;;;;;0.70;0.70;;;;;;;16.83;100.00;-6793.59;5054712;28;20527;-70
2021/08/18 06:03:11;;;;;;;0.70;0.60;;;;;;;16.91;100.00;-6280.59;5052513;28;20488;-71
2021/08/18 06:05:39;;;;;;;0.80;0.80;;;;;;;16.86;100.00;-6239.78;5054407;28;20458;-71
2021/08/18 06:08:09;;;;;;;0.70;0.70;;;;;;;16.92;100.00;-5812.97;5054959;28;20449;-70
2021/08/18 06:10:36;;;;;;;1.40;1.27;;;;;;;16.98;100.00;-5322.50;5054798;28;20438;-70
2021/08/18 06:13:03;;;;;;;0.70;0.67;;;;;;;17.08;100.00;-4826.78;5054866;28;20823;-70
2021/08/18 06:15:32;;;;;;;0.70;0.70;;;;;;;17.13;100.00;-4460.56;5053577;28;20834;-71
2021/08/18 06:18:00;;;;;;;0.80;0.80;;;;;;;17.22;100.00;-3959.38;5054154;28;20439;-71
2021/08/18 06:20:27;;;;;;;0.70;0.60;;;;;;;17.20;100.00;-3666.78;5041145;28;20446;-71
2021/08/18 06:23:16;;;;;;;0.70;0.60;;;;;;;17.30;100.00;-3152.56;5035008;28;20508;-70
2021/08/18 06:25:43;;;;;;;0.70;0.60;;;;;;;17.45;100.00;-2462.25;5034553;28;20823;-71
2021/08/18 06:28:16;;;;;;;0.70;0.70;;;;;;;17.47;100.00;-1603.91;5049298;28;20472;-71
2021/08/18 06:30:43;;;;;;;0.70;0.70;;;;;;;17.39;100.00;-1061.66;5053918;28;20519;-71
2021/08/18 06:33:12;;;;;;;0.70;0.60;;;;;;;17.52;100.00;11.81;5053936;28;20484;-70
2021/08/18 06:35:39;;;;;;;1.10;1.00;;;;;;;17.68;100.00;1104.16;5054442;28;20420;-71
2021/08/18 06:38:06;;;;;;;0.80;0.80;;;;;;;17.62;100.00;1695.34;5054148;28;20458;-71
2021/08/18 06:40:33;;;;;;;1.37;1.27;;;;;;;17.69;100.00;2369.41;5051395;28;20535;-71
2021/08/18 06:43:00;;;;;;;0.70;0.60;;;;;;;17.78;100.00;3125.81;5054150;28;20437;-70
2021/08/18 06:45:29;;;;;;;0.70;0.60;;;;;;;17.75;100.00;3845.22;5052940;28;20517;-71
2021/08/18 06:47:56;;;;;;;0.70;0.70;;;;;;;17.47;100.00;3979.34;5054107;28;20436;-70
2021/08/18 06:50:25;;;;;;;0.70;0.60;;;;;;;17.56;100.00;4809.97;5053413;28;20519;-71
2021/08/18 06:52:53;;;;;;;0.70;0.60;;;;;;;17.58;100.00;5338.72;5053447;28;20840;-71
2021/08/18 06:55:20;;;;;;;0.70;0.60;;;;;;;17.71;100.00;6219.31;5052400;28;20407;-71
2021/08/18 06:57:47;;;;;;;1.27;0.93;;;;;;;17.80;100.00;7332.25;5053888;28;20509;-70
2021/08/18 07:00:15;;;;;;;0.90;0.90;;;;;;;17.98;100.00;8238.06;5053870;28;20998;-70
2021/08/18 07:02:43;;;;;;;0.70;0.70;;;;;;;17.95;100.00;8764.19;5051124;28;20847;-71
2021/08/18 07:05:11;;;;;;;0.70;0.70;;;;;;;18.08;100.00;10010.28;5053795;28;20760;-71
2021/08/18 07:07:40;;;;;;;0.80;0.80;;;;;;;18.05;100.00;10933.50;5053579;28;20468;-71
2021/08/18 07:10:08;;;;;;;0.77;0.70;;;;;;;18.39;100.00;12404.06;5045616;28;20437;-71
2021/08/18 07:12:35;;;;;;;0.70;0.70;;;;;;;18.21;100.00;12619.69;5039357;28;20522;-71
2021/08/18 07:15:02;;;;;;;1.40;1.30;;;;;;;18.35;100.00;14078.91;5033537;28;20471;-71
2021/08/18 07:17:32;;;;;;;0.93;0.80;;;;;;;18.25;100.00;14427.13;5038222;28;20947;-71
2021/08/18 07:19:59;;;;;;;1.47;1.37;;;;;;;18.21;100.00;15679.16;5053482;28;20420;-70
2021/08/18 07:22:26;;;;;;;0.80;0.80;;;;;;;18.24;100.00;16152.06;5052004;28;21030;-71
2021/08/18 07:24:55;;;;;;;0.80;0.80;;;;;;;18.21;100.00;17166.59;5052344;28;20386;-71
2021/08/18 07:27:23;;;;;;;0.70;0.70;;;;;;;18.26;100.00;17948.22;5052647;28;20427;-71
2021/08/18 07:29:50;;;;;;;0.70;0.70;;;;;;;18.31;100.00;18665.78;5053513;28;20841;-71
2021/08/18 07:32:17;;;;;;;0.80;0.80;;;;;;;18.23;100.00;18906.56;5051562;28;20491;-70
2021/08/18 07:34:44;;;;;;;0.80;0.70;;;;;;;18.19;100.00;19618.69;5053192;28;20393;-71
2021/08/18 07:37:11;;;;;;;0.70;0.60;;;;;;;18.49;100.00;21114.59;5052091;28;20843;-71
2021/08/18 07:39:38;;;;;;;0.70;0.70;;;;;;;18.76;100.00;22197.53;5053866;28;20946;-71
2021/08/18 07:42:06;;;;;;;0.70;0.70;;;;;;;18.80;100.00;22834.59;5052871;28;20439;-71
2021/08/18 07:44:33;;;;;;;0.70;0.60;;;;;;;18.66;100.00;22653.56;5054598;28;20506;-70
2021/08/18 07:47:00;;;;;;;0.80;0.77;;;;;;;18.50;100.00;23029.50;5053261;28;20415;-71
2021/08/18 07:49:27;;;;;;;0.70;0.60;;;;;;;18.89;100.00;23905.69;5053184;28;20998;-70
2021/08/18 07:51:54;;;;;;;0.70;0.70;;;;;;;18.62;100.00;24258.91;5051422;28;20468;-71
2021/08/18 07:54:23;;;;;;;0.70;0.70;;;;;;;18.67;100.00;24186.66;5052023;28;20513;-70
2021/08/18 07:56:51;;;;;;;0.70;0.70;;;;;;;18.26;100.00;23926.44;5052932;28;20432;-70
2021/08/18 07:59:19;;;;;;;0.70;0.70;;;;;;;18.08;100.00;23751.09;5052828;28;20407;-69
2021/08/18 08:01:46;;;;;;;1.00;0.90;;;;;;;18.17;100.00;24821.84;5053591;28;20447;-71
2021/08/18 08:04:14;;;;;;;0.70;0.70;;;;;;;18.24;100.00;25591.41;5056980;28;20427;-69
2021/08/18 08:07:05;;;;;;;0.70;0.60;;;;;;;18.24;100.00;25884.56;5037310;28;20440;-69
2021/08/18 08:09:31;;;;;;;0.70;0.70;;;;;;;18.18;100.00;25973.91;5037170;28;20455;-69
2021/08/18 08:12:01;;;;;;;0.80;0.70;;;;;;;18.11;100.00;25615.88;5036952;28;20429;-69
2021/08/18 08:14:29;;;;;;;0.70;0.70;;;;;;;18.10;100.00;26016.50;5042732;28;20467;-70
2021/08/18 08:16:56;;;;;;;1.20;1.10;;;;;;;18.00;100.00;25978.09;5048245;28;20483;-70
2021/08/18 08:19:23;;;;;;;0.70;0.70;;;;;;;18.13;100.00;26578.56;5055630;28;20866;-69
2021/08/18 08:21:50;;;;;;;1.47;0.87;;;;;;;18.34;100.00;26969.72;5054784;28;20439;-71
2021/08/18 08:24:17;;;;;;;3.03;0.97;;;;;;;18.43;100.00;27226.25;5056568;28;20455;-69
2021/08/18 08:26:44;;;;;;;0.70;0.60;;;;;;;18.79;100.00;26945.88;5055139;28;20438;-69
2021/08/18 08:29:11;;;;;;;0.70;0.70;;;;;;;18.79;100.00;26289.63;5055530;28;20446;-69
2021/08/18 08:31:41;;;;;;;0.80;0.70;;;;;;;19.23;100.00;26689.59;5056304;28;20413;-69
2021/08/18 08:34:08;;;;;;;0.70;0.60;;;;;;;19.19;100.00;24078.91;5056896;28;20455;-69
2021/08/18 08:36:35;;;;;;;0.70;0.70;;;;;;;19.21;100.00;22368.59;5056502;28;20495;-69
2021/08/18 08:39:05;;;;;;;1.10;0.83;;;;;;;19.11;100.00;18438.13;5056476;28;20447;-69
2021/08/18 08:41:33;;;;;;;0.70;0.60;;;;;;;18.99;100.00;14877.88;5056279;28;20990;-69
2021/08/18 08:44:01;;;;;;;0.70;0.60;;;;;;;18.88;100.00;9990.06;5056070;28;20770;-68
2021/08/18 08:46:28;;;;;;;0.87;0.87;;;;;;;18.52;100.00;6749.66;5054855;28;20978;-68
2021/08/18 08:49:16;;;;;;;0.70;0.60;;;;;;;18.39;100.00;7893.25;5055954;28;20411;-68
2021/08/18 08:51:45;;;;;;;1.50;1.03;;;;;;;18.22;100.00;12138.47;5055007;28;20410;-68
2021/08/18 08:54:12;;;;;;;0.80;0.80;;;;;;;18.22;100.00;14569.75;5056056;28;21011;-69
2021/08/18 08:56:39;;;;;;;0.70;0.70;;;;;;;18.25;100.00;18240.16;5056140;28;20412;-68
2021/08/18 08:59:07;;;;;;;1.17;1.07;;;;;;;17.97;100.00;20744.56;5055463;28;21011;-69
2021/08/18 09:02:00;;;;;;;0.70;0.60;;;;;;;18.17;100.00;24184.41;5054922;28;20476;-69
2021/08/18 09:04:31;;;;;;;0.70;0.70;;;;;;;17.98;100.00;25396.19;5055043;28;20470;-69
2021/08/18 09:07:10;;;;;;;0.70;0.60;;;;;;;17.96;100.00;27742.84;5044776;28;20832;-69
2021/08/18 09:09:42;;;;;;;0.80;0.70;;;;;;;17.79;100.00;29287.38;5034648;28;20539;-68
2021/08/18 09:12:11;;;;;;;0.80;0.80;;;;;;;17.94;100.00;31568.13;5034431;28;20452;-70
2021/08/18 09:14:40;;;;;;;0.70;0.70;;;;;;;18.09;100.00;33266.88;5035417;28;20416;-69
2021/08/18 09:17:32;;;;;;;0.70;0.70;;;;;;;17.98;100.00;32685.63;5035627;28;20493;-69
2021/08/18 09:20:05;;;;;;;0.70;0.60;;;;;;;17.96;100.00;34137.78;5028209;28;20449;-69
2021/08/18 09:22:38;;;;;;;0.70;0.60;;;;;;;18.41;100.00;36409.44;5035875;28;20413;-70
2021/08/18 09:25:18;;;;;;;0.70;0.70;;;;;;;18.62;100.00;37045.28;5034162;28;20432;-70
2021/08/18 09:27:49;;;;;;;0.70;0.60;;;;;;;18.57;100.00;35909.41;5034332;28;20448;-69
2021/08/18 09:30:20;;;;;;;0.70;0.60;;;;;;;18.40;100.00;36197.50;5036967;28;20422;-70
2021/08/18 09:32:48;;;;;;;0.70;0.70;;;;;;;18.57;100.00;36933.81;5053907;28;20430;-69
2021/08/18 09:35:19;;;;;;;0.70;0.60;;;;;;;18.72;100.00;37723.84;5055441;28;20430;-70
2021/08/18 09:37:54;;;;;;;0.93;0.83;;;;;;;18.45;100.00;36301.47;5055325;28;21020;-70
2021/08/18 09:40:23;;;;;;;0.70;0.60;;;;;;;18.51;100.00;37598.38;5055444;28;20411;-70
2021/08/18 09:42:52;;;;;;;0.70;0.70;;;;;;;18.53;100.00;36464.25;5055616;28;20797;-71
2021/08/18 09:45:23;;;;;;;0.80;0.70;;;;;;;18.25;100.00;36567.13;5055398;28;20411;-70
2021/08/18 09:47:53;;;;;;;0.70;0.60;;;;;;;18.22;100.00;37878.53;5055098;28;20424;-70
2021/08/18 09:50:25;;;;;;;0.70;0.60;;;;;;;18.13;100.00;37232.41;5053940;28;20443;-70
2021/08/18 09:52:52;;;;;;;0.70;0.60;;;;;;;18.11;100.00;37416.81;5055103;28;20511;-70
2021/08/18 09:55:22;;;;;;;0.70;0.60;;;;;;;18.25;100.00;38505.25;5054964;28;20783;-70
2021/08/18 09:57:50;;;;;;;0.70;0.60;;;;;;;18.42;100.00;39397.13;5055019;28;20428;-70
2021/08/18 10:00:17;;;;;;;0.70;0.70;;;;;;;18.50;100.00;40087.44;5054943;28;20428;-70
2021/08/18 10:02:44;;;;;;;0.70;0.60;;;;;;;18.84;100.00;41425.31;5052839;28;20787;-70
2021/08/18 10:05:12;;;;;;;0.70;0.60;;;;;;;19.17;100.00;40466.56;5055342;28;20445;-70
2021/08/18 10:07:40;;;;;;;0.70;0.70;;;;;;;19.37;100.00;40811.72;5054831;28;20881;-70
2021/08/18 10:10:08;;;;;;;0.70;0.60;;;;;;;19.35;100.00;40479.41;5048748;28;20447;-70
2021/08/18 10:12:36;;;;;;;0.70;0.70;;;;;;;19.03;100.00;39463.72;5038125;28;20443;-70
2021/08/18 10:15:05;;;;;;;0.70;0.60;;;;;;;18.88;100.00;39271.69;5048393;28;20442;-70
2021/08/18 10:17:39;;;;;;;0.80;0.80;;;;;;;18.80;100.00;38010.94;5054381;28;20811;-71
2021/08/18 10:20:08;;;;;;;0.70;0.60;;;;;;;18.43;100.00;36498.50;5052931;28;20947;-70
2021/08/18 10:22:37;;;;;;;0.70;0.60;;;;;;;18.12;100.00;36354.69;5054400;28;20442;-70
2021/08/18 10:25:34;;;;;;;0.70;0.60;;;;;;;17.80;100.00;34679.09;5052628;28;20850;-70
2021/08/18 10:28:02;;;;;;;0.80;0.70;;;;;;;17.68;100.00;35150.94;5053097;28;20436;-70
2021/08/18 10:30:29;;;;;;;0.70;0.70;;;;;;;17.66;100.00;35775.78;5054500;28;20856;-70
2021/08/18 10:32:57;;;;;;;0.70;0.70;;;;;;;17.93;100.00;37281.06;5052583;28;20468;-71
2021/08/18 10:35:45;;;;;;;0.70;0.70;;;;;;;18.22;100.00;37470.78;5054247;28;20431;-70
2021/08/18 10:38:34;;;;;;;0.70;0.70;;;;;;;18.32;100.00;38195.22;5054225;28;20474;-70
2021/08/18 10:41:03;;;;;;;0.70;0.70;;;;;;;18.64;100.00;38645.56;5054705;28;20413;-70
2021/08/18 10:43:56;;;;;;;0.80;0.70;;;;;;;19.09;100.00;40356.88;5054087;28;20458;-71
2021/08/18 10:46:23;;;;;;;0.70;0.70;;;;;;;19.67;100.00;41828.28;5052748;28;20408;-70
2021/08/18 10:49:08;;;;;;;0.70;0.70;;;;;;;19.69;100.00;39706.69;5053523;28;20407;-72
2021/08/18 10:51:50;;;;;;;0.80;0.80;;;;;;;20.00;100.00;37522.69;5054149;28;20412;-72
2021/08/18 10:54:39;;;;;;;0.80;0.70;;;;;;;20.08;100.00;33159.50;5053994;28;20463;-70
2021/08/18 10:57:39;;;;;;;0.70;0.60;;;;;;;19.99;100.00;27811.22;5053858;28;20830;-72
2021/08/18 11:00:17;;;;;;;0.70;0.60;;;;;;;20.23;100.00;23677.88;5048345;28;20512;-72
2021/08/18 11:02:50;;;;;;;0.80;0.70;;;;;;;19.88;100.00;5715.09;5047184;28;20431;-72
2021/08/18 11:05:19;;;;;;;0.80;0.70;;;;;;;19.71;100.00;-7511.94;5052381;28;20436;-70
2021/08/18 11:08:04;;;;;;;0.70;0.70;;;;;;;19.83;100.00;-8816.44;5053604;28;20879;-72
2021/08/18 11:10:34;;;;;;;0.80;0.70;;;;;;;19.86;100.00;-15888.88;5052093;28;20928;-71
2021/08/18 11:13:05;;;;;;;0.83;0.83;;;;;;;20.00;100.00;-18777.75;5053569;28;20470;-70
2021/08/18 11:15:51;;;;;;;0.73;0.70;;;;;;;20.03;100.00;-20836.09;5052315;28;20434;-70
2021/08/18 11:18:21;;;;;;;1.00;0.77;;;;;;;19.86;100.00;-21219.78;5052007;28;20491;-73
2021/08/18 11:20:52;;;;;;;0.70;0.60;;;;;;;20.00;100.00;-21223.63;5053506;28;20398;-72
2021/08/18 11:23:32;;;;;;;0.70;0.60;;;;;;;19.82;100.00;-21218.84;5052204;28;20437;-72
2021/08/18 11:26:03;;;;;;;0.70;0.60;;;;;;;20.26;100.00;-21230.72;5053475;28;20438;-72
2021/08/18 11:28:34;;;;;;;0.70;0.60;;;;;;;20.57;100.00;-21238.91;5053705;28;20419;-70
2021/08/18 11:31:04;;;;;;;0.70;0.70;;;;;;;20.47;100.00;-21236.19;5053302;28;20427;-72
2021/08/18 11:33:33;;;;;;;0.70;0.70;;;;;;;21.03;100.00;-21251.19;5051700;28;20558;-72
2021/08/18 11:36:01;;;;;;;0.70;0.70;;;;;;;21.36;100.00;-21259.94;5053169;28;20457;-72